Terminal Aerodrome Forecast
Issued by NWS

Home | Current Version | Previous Version | Text Only | Print | Product List | Glossary On
Versions: 1 2 3 4 5 6 7 8 9 10 11 12 13 14 15
000
FTUS44 KCRP 202337
TAFLRD
TAF
KLRD 202337Z 2100/2124 05006KT P6SM FEW090 OVC150
     FM211000 12006KT P6SM VCSH BKN020 OVC080
     FM212000 14010KT P6SM OVC050=

USA.gov is the U.S. government's official web portal to all federal, state and local government web resources and services.